Time;durP1;ratioP1;P1;durP2;ratioP2;P2;SDS_P1;SDS_P2;PMS_P1;PMS_P2;Temp;Humidity;BMP_temperature;BMP_pressure;BME280_temperature;BME280_humidity;BME280_pressure;Samples;Min_cycle;Max_cycle;Signal;HPM_P1;HPM_P2
2020/12/13 00:02:15;;;;;;;20.60;18.65;;;8.30;95.10;;;;;;5015512;28;20638;-76
2020/12/13 00:04:41;;;;;;;18.42;17.23;;;8.30;94.80;;;;;;5015595;28;20249;-77
2020/12/13 00:07:08;;;;;;;19.90;18.70;;;8.30;94.40;;;;;;5015069;28;20713;-77
2020/12/13 00:09:35;;;;;;;19.90;18.40;;;8.20;94.80;;;;;;5015512;28;20313;-77
2020/12/13 00:12:02;;;;;;;18.95;17.85;;;8.10;95.00;;;;;;5015160;28;20192;-77
2020/12/13 00:14:29;;;;;;;18.98;17.88;;;8.10;95.30;;;;;;5015601;28;20301;-77
2020/12/13 00:16:56;;;;;;;245.80;38.60;;;8.10;95.60;;;;;;5015239;28;20218;-77
2020/12/13 00:19:22;;;;;;;212.05;33.22;;;8.10;95.50;;;;;;5015541;28;20225;-77
2020/12/13 00:21:50;;;;;;;18.75;17.58;;;8.10;96.70;;;;;;5015160;28;20198;-77
2020/12/13 00:24:17;;;;;;;18.83;17.63;;;8.10;96.70;;;;;;5015073;28;20216;-77
2020/12/13 00:26:44;;;;;;;198.40;35.15;;;8.10;96.40;;;;;;5015221;28;20277;-77
2020/12/13 00:29:11;;;;;;;19.15;17.98;;;8.20;97.70;;;;;;5014878;28;20228;-77
2020/12/13 00:31:37;;;;;;;18.40;17.20;;;8.20;96.90;;;;;;5014916;28;20192;-77
2020/12/13 00:34:03;;;;;;;19.23;17.92;;;8.10;96.60;;;;;;5014848;28;20656;-77
2020/12/13 00:36:30;;;;;;;18.27;17.17;;;8.10;96.30;;;;;;5014822;28;20575;-77
2020/12/13 00:38:56;;;;;;;18.75;17.55;;;8.10;96.10;;;;;;5014961;28;20194;-77
2020/12/13 00:41:23;;;;;;;18.27;16.88;;;8.10;95.90;;;;;;5014394;28;20202;-77
2020/12/13 00:43:50;;;;;;;17.90;16.70;;;8.10;96.70;;;;;;5014215;28;20198;-77
2020/12/13 00:46:16;;;;;;;17.27;16.13;;;8.20;96.50;;;;;;5014665;28;20217;-77
2020/12/13 00:48:43;;;;;;;17.95;16.83;;;8.10;96.40;;;;;;5014430;28;20194;-77
2020/12/13 00:51:09;;;;;;;17.40;16.35;;;8.10;95.90;;;;;;5014729;28;20201;-77
2020/12/13 00:53:35;;;;;;;17.40;16.30;;;8.10;96.00;;;;;;5014769;28;20208;-77
2020/12/13 00:56:02;;;;;;;17.30;16.30;;;8.10;95.80;;;;;;5014399;28;20222;-77
2020/12/13 00:58:28;;;;;;;17.70;16.60;;;8.00;95.60;;;;;;5014401;28;20273;-77
2020/12/13 01:00:55;;;;;;;17.25;16.25;;;8.10;95.10;;;;;;5014474;28;20233;-77
2020/12/13 01:03:22;;;;;;;25.45;17.17;;;8.10;94.80;;;;;;5014443;28;20202;-77
2020/12/13 01:05:48;;;;;;;18.42;17.25;;;8.10;94.70;;;;;;5014243;28;20211;-77
2020/12/13 01:08:14;;;;;;;19.38;17.98;;;8.10;94.50;;;;;;5014310;28;20563;-78
2020/12/13 01:10:41;;;;;;;19.42;18.25;;;8.20;94.20;;;;;;5014923;28;20218;-77
2020/12/13 01:13:07;;;;;;;17.58;16.58;;;8.10;94.00;;;;;;5014622;28;20195;-77
2020/12/13 01:15:34;;;;;;;17.15;16.15;;;8.10;93.90;;;;;;5014358;28;20663;-77
2020/12/13 01:18:02;;;;;;;18.17;17.05;;;7.90;94.40;;;;;;5014045;28;20734;-77
2020/12/13 01:20:28;;;;;;;19.52;18.15;;;7.80;95.00;;;;;;5014338;28;20190;-77
2020/12/13 01:22:54;;;;;;;40.22;19.55;;;7.80;95.20;;;;;;5014165;28;20206;-77
2020/12/13 01:25:21;;;;;;;180.50;31.52;;;7.90;96.40;;;;;;5014075;28;20198;-77
2020/12/13 01:27:47;;;;;;;19.38;18.08;;;7.90;96.30;;;;;;5013537;28;20225;-77
2020/12/13 01:30:13;;;;;;;17.38;16.30;;;7.90;96.10;;;;;;5013847;28;20218;-77
2020/12/13 01:32:41;;;;;;;17.50;16.50;;;7.90;96.10;;;;;;5013999;28;20209;-77
2020/12/13 01:35:10;;;;;;;17.42;16.33;;;7.90;95.70;;;;;;5013610;28;20212;-77
2020/12/13 01:37:36;;;;;;;18.15;17.05;;;7.90;95.40;;;;;;5013723;28;20214;-77
2020/12/13 01:40:04;;;;;;;17.92;16.80;;;7.90;95.40;;;;;;5013584;28;20201;-77
2020/12/13 01:42:37;;;;;;;18.00;16.85;;;7.90;95.30;;;;;;5013892;28;20208;-77
2020/12/13 01:45:05;;;;;;;17.15;16.15;;;7.90;95.10;;;;;;5013918;28;20663;-77
2020/12/13 01:47:31;;;;;;;21.90;20.30;;;7.90;94.90;;;;;;5013477;28;20630;-77
2020/12/13 01:49:58;;;;;;;18.80;17.58;;;8.00;94.70;;;;;;5013394;28;20313;-77
2020/12/13 01:52:43;;;;;;;19.90;18.08;;;8.00;94.20;;;;;;5013741;28;20213;-77
2020/12/13 01:55:11;;;;;;;18.50;17.20;;;8.00;94.20;;;;;;5012790;28;20217;-77
2020/12/13 01:57:39;;;;;;;17.17;15.88;;;8.00;96.80;;;;;;5013435;28;20226;-77
2020/12/13 02:00:08;;;;;;;17.60;16.35;;;7.90;96.20;;;;;;5013080;28;20198;-77
2020/12/13 02:02:40;;;;;;;18.50;17.23;;;7.80;96.10;;;;;;5013580;28;20301;-77
2020/12/13 02:05:08;;;;;;;18.65;17.55;;;7.80;96.00;;;;;;5013304;28;20221;-77
2020/12/13 02:07:37;;;;;;;20.23;18.75;;;7.80;96.10;;;;;;5013265;28;20317;-77
2020/12/13 02:10:06;;;;;;;20.88;19.27;;;7.80;96.00;;;;;;5012791;28;20213;-77
2020/12/13 02:12:33;;;;;;;22.13;20.40;;;7.80;95.70;;;;;;5013342;28;20197;-77
2020/12/13 02:14:59;;;;;;;20.67;19.17;;;7.80;96.10;;;;;;5013260;28;20725;-77
2020/12/13 02:17:26;;;;;;;19.77;18.35;;;7.90;95.40;;;;;;5013081;28;20711;-77
2020/12/13 02:19:52;;;;;;;19.25;17.83;;;7.90;94.80;;;;;;5012911;28;20196;-77
2020/12/13 02:22:21;;;;;;;18.70;17.40;;;8.00;94.30;;;;;;4995925;28;20209;-77
2020/12/13 02:24:47;;;;;;;18.38;17.17;;;8.00;94.20;;;;;;5012986;28;20558;-76
2020/12/13 02:27:14;;;;;;;17.58;16.58;;;8.00;93.90;;;;;;5012918;28;20217;-77
2020/12/13 02:29:40;;;;;;;18.67;17.13;;;7.90;93.90;;;;;;5012575;28;20232;-77
2020/12/13 02:32:06;;;;;;;17.40;16.30;;;7.80;94.20;;;;;;5012934;28;20198;-77
2020/12/13 02:34:33;;;;;;;18.45;16.80;;;7.90;94.10;;;;;;5012610;28;20647;-77
2020/12/13 02:36:59;;;;;;;17.52;16.42;;;7.90;94.00;;;;;;5012682;28;20301;-77
2020/12/13 02:39:26;;;;;;;18.23;16.98;;;7.80;94.20;;;;;;5012995;28;20216;-77
2020/12/13 02:42:01;;;;;;;15.90;14.90;;;7.80;94.40;;;;;;5012892;28;20194;-77
2020/12/13 02:44:27;;;;;;;16.60;15.60;;;7.90;94.10;;;;;;5012959;28;20216;-77
2020/12/13 02:46:54;;;;;;;17.20;16.15;;;8.00;94.00;;;;;;5012664;28;20240;-77
2020/12/13 02:49:20;;;;;;;16.40;15.50;;;7.90;93.90;;;;;;5012668;28;20228;-77
2020/12/13 02:51:47;;;;;;;15.55;14.75;;;8.00;93.90;;;;;;5012570;28;20284;-77
2020/12/13 02:54:13;;;;;;;16.05;15.15;;;7.90;93.90;;;;;;5012905;28;20202;-77
2020/12/13 02:56:42;;;;;;;16.52;15.52;;;7.80;95.20;;;;;;5012566;28;20222;-77
2020/12/13 02:59:09;;;;;;;16.13;15.23;;;7.90;95.00;;;;;;5012739;28;20193;-77
2020/12/13 03:01:35;;;;;;;26.92;16.17;;;7.90;94.90;;;;;;5012723;28;20202;-77
2020/12/13 03:04:02;;;;;;;1003.78;122.22;;;7.90;94.90;;;;;;5012406;28;20205;-77
2020/12/13 03:06:29;;;;;;;18.25;15.93;;;8.00;95.00;;;;;;5014979;28;20228;-77
2020/12/13 03:08:55;;;;;;;14.90;14.10;;;8.10;95.00;;;;;;5016478;28;20208;-77
2020/12/13 03:11:22;;;;;;;16.10;15.18;;;8.10;94.80;;;;;;5016313;28;20194;-77
2020/12/13 03:13:51;;;;;;;15.48;14.57;;;8.00;94.50;;;;;;5016657;28;20201;-77
2020/12/13 03:16:18;;;;;;;15.10;14.35;;;8.00;94.60;;;;;;5016408;28;20304;-77
2020/12/13 03:18:44;;;;;;;14.77;14.07;;;8.00;94.30;;;;;;5016311;28;20194;-77
2020/12/13 03:21:10;;;;;;;15.65;14.75;;;8.00;94.30;;;;;;5016361;28;20208;-77
2020/12/13 03:23:37;;;;;;;17.05;16.15;;;8.00;94.20;;;;;;5016351;28;20206;-77
2020/12/13 03:26:03;;;;;;;15.70;14.85;;;8.00;93.90;;;;;;5016214;28;20220;-77
2020/12/13 03:28:29;;;;;;;16.52;15.52;;;8.00;94.00;;;;;;5016041;28;20200;-77
2020/12/13 03:30:57;;;;;;;15.77;14.98;;;7.90;94.00;;;;;;5016062;28;20218;-77
2020/12/13 03:33:23;;;;;;;16.17;15.27;;;8.00;93.80;;;;;;5016097;28;20202;-77
2020/12/13 03:35:50;;;;;;;15.80;14.90;;;7.90;93.70;;;;;;5015852;28;20591;-77
2020/12/13 03:38:16;;;;;;;16.40;15.50;;;8.00;93.60;;;;;;5015889;28;20276;-77
2020/12/13 03:40:43;;;;;;;16.48;15.57;;;7.90;93.70;;;;;;5016157;28;20197;-77
2020/12/13 03:43:09;;;;;;;27.55;17.30;;;7.80;94.10;;;;;;5016068;28;20210;-77
2020/12/13 03:45:35;;;;;;;509.25;60.72;;;7.80;94.60;;;;;;5015929;28;20202;-77
2020/12/13 03:48:03;;;;;;;342.25;46.70;;;7.70;95.60;;;;;;5015311;28;20206;-77
2020/12/13 03:50:38;;;;;;;15.50;14.60;;;7.70;97.80;;;;;;5016086;28;20221;-77
2020/12/13 03:53:06;;;;;;;17.13;15.70;;;7.70;97.50;;;;;;5015847;28;20204;-77
2020/12/13 03:55:32;;;;;;;15.43;14.52;;;7.70;97.10;;;;;;5015708;28;20214;-77
2020/12/13 03:57:58;;;;;;;15.43;14.57;;;7.70;97.10;;;;;;5015421;28;20232;-77
2020/12/13 04:00:27;;;;;;;15.65;14.80;;;7.70;96.40;;;;;;5015800;28;20252;-77
2020/12/13 04:02:54;;;;;;;16.33;15.40;;;7.70;96.30;;;;;;5015708;28;20289;-77
2020/12/13 04:05:22;;;;;;;16.38;15.48;;;7.60;96.00;;;;;;5015311;28;20198;-77
2020/12/13 04:07:49;;;;;;;744.63;77.82;;;7.70;96.00;;;;;;5015430;28;20583;-77
2020/12/13 04:10:15;;;;;;;15.85;14.95;;;7.70;95.90;;;;;;5015245;28;20225;-77
2020/12/13 04:12:41;;;;;;;16.17;15.27;;;7.80;95.90;;;;;;5015442;28;20209;-77
2020/12/13 04:15:08;;;;;;;15.55;14.73;;;7.80;95.70;;;;;;5015335;28;20547;-77
2020/12/13 04:17:34;;;;;;;16.38;15.50;;;7.80;95.40;;;;;;5013816;28;20237;-77
2020/12/13 04:20:01;;;;;;;15.73;14.93;;;7.80;95.00;;;;;;5015202;28;20186;-77
2020/12/13 04:22:28;;;;;;;15.43;14.70;;;7.80;94.60;;;;;;5015689;28;20203;-77
2020/12/13 04:24:54;;;;;;;16.40;15.50;;;7.90;94.70;;;;;;5015617;28;20988;-77
2020/12/13 04:27:21;;;;;;;16.50;15.60;;;7.90;94.40;;;;;;5015141;28;20218;-77
2020/12/13 04:29:47;;;;;;;37.95;16.85;;;7.90;94.40;;;;;;5014222;28;20218;-77
2020/12/13 04:32:13;;;;;;;484.65;57.80;;;7.90;94.40;;;;;;5015186;28;20639;-77
2020/12/13 04:34:40;;;;;;;16.63;15.70;;;7.90;95.50;;;;;;5015022;28;20210;-77
2020/12/13 04:37:06;;;;;;;161.32;27.52;;;7.90;96.10;;;;;;5014596;28;20212;-77
2020/12/13 04:39:34;;;;;;;1865.50;284.25;;;7.90;97.30;;;;;;5014718;28;20194;-77
2020/12/13 04:42:01;;;;;;;15.48;14.63;;;7.90;98.90;;;;;;5014882;28;20200;-77
2020/12/13 04:44:29;;;;;;;15.60;14.70;;;7.90;97.50;;;;;;5014643;28;20190;-77
2020/12/13 04:46:56;;;;;;;16.42;15.43;;;7.90;96.70;;;;;;5014250;28;20268;-77
2020/12/13 04:49:23;;;;;;;16.35;15.35;;;8.00;96.40;;;;;;5014713;28;20694;-76
2020/12/13 04:51:51;;;;;;;17.60;16.48;;;8.10;94.60;;;;;;5014753;28;20210;-77
2020/12/13 04:54:21;;;;;;;16.80;15.50;;;8.10;94.20;;;;;;5014512;28;20678;-77
2020/12/13 04:56:50;;;;;;;16.77;15.60;;;8.10;93.70;;;;;;5014368;28;20217;-77
2020/12/13 04:59:17;;;;;;;15.38;14.48;;;8.10;93.50;;;;;;5014515;28;20202;-77
2020/12/13 05:01:44;;;;;;;15.40;14.60;;;8.10;94.10;;;;;;5014691;28;20224;-77
2020/12/13 05:04:11;;;;;;;17.15;16.13;;;8.10;94.50;;;;;;5014237;28;20194;-77
2020/12/13 05:06:38;;;;;;;17.65;16.55;;;8.10;94.00;;;;;;5014115;28;20233;-77
2020/12/13 05:09:05;;;;;;;18.05;16.95;;;8.10;93.30;;;;;;5014324;28;20198;-77
2020/12/13 05:11:31;;;;;;;16.85;15.95;;;8.00;93.30;;;;;;5014431;28;20252;-77
2020/12/13 05:13:59;;;;;;;16.27;15.48;;;8.00;93.40;;;;;;5014203;28;20198;-77
2020/12/13 05:16:26;;;;;;;15.77;14.90;;;8.00;93.30;;;;;;5013737;28;20232;-77
2020/12/13 05:18:52;;;;;;;16.40;15.55;;;8.00;93.10;;;;;;5014268;28;20190;-77
2020/12/13 05:21:21;;;;;;;16.30;15.40;;;7.80;93.30;;;;;;5014130;28;20599;-77
2020/12/13 05:23:48;;;;;;;16.02;15.13;;;7.80;93.60;;;;;;5014230;28;20202;-77
2020/12/13 05:26:15;;;;;;;15.68;14.88;;;7.80;94.00;;;;;;5013775;28;20229;-77
2020/12/13 05:28:47;;;;;;;15.80;14.95;;;7.80;94.00;;;;;;5013539;28;20194;-77
2020/12/13 05:31:16;;;;;;;15.20;14.40;;;7.80;93.70;;;;;;5013975;28;20707;-77
2020/12/13 05:33:45;;;;;;;16.10;15.20;;;7.80;93.60;;;;;;5014213;28;20233;-77
2020/12/13 05:36:14;;;;;;;15.73;14.90;;;7.80;93.80;;;;;;5013575;28;20263;-76
2020/12/13 05:38:41;;;;;;;301.80;40.42;;;7.80;94.10;;;;;;5014077;28;20701;-77
2020/12/13 05:41:10;;;;;;;15.23;14.32;;;7.80;95.10;;;;;;5014023;28;20195;-77
2020/12/13 05:43:41;;;;;;;236.10;34.78;;;7.90;95.10;;;;;;5013927;28;20205;-77
2020/12/13 05:51:43;;;;;;;15.05;14.25;;;8.10;94.70;;;;;;5011893;28;20309;-77
2020/12/13 05:54:19;;;;;;;14.40;13.70;;;8.10;94.00;;;;;;5013636;28;20194;-77
2020/12/13 05:56:49;;;;;;;14.68;13.98;;;8.10;93.70;;;;;;4993819;28;20225;-77
2020/12/13 05:59:16;;;;;;;15.30;14.50;;;8.00;93.00;;;;;;4993880;28;20611;-77
2020/12/13 06:01:46;;;;;;;300.73;47.75;;;8.10;92.90;;;;;;4993970;28;20206;-77
2020/12/13 06:04:16;;;;;;;423.00;53.13;;;8.00;93.80;;;;;;4994178;28;20199;-77
2020/12/13 06:06:44;;;;;;;16.10;15.10;;;8.00;94.90;;;;;;5013258;28;20222;-77
2020/12/13 06:09:11;;;;;;;14.80;14.00;;;8.00;95.50;;;;;;5013609;28;20209;-77
2020/12/13 06:11:44;;;;;;;14.43;13.63;;;8.00;94.50;;;;;;5013563;28;20194;-77
2020/12/13 06:14:14;;;;;;;15.13;14.32;;;8.00;94.50;;;;;;5013134;28;20202;-77
2020/12/13 06:16:41;;;;;;;14.15;13.45;;;8.10;94.40;;;;;;5013258;28;20217;-77
2020/12/13 06:19:09;;;;;;;15.32;14.43;;;8.00;94.00;;;;;;5013442;28;20652;-77
2020/12/13 06:21:39;;;;;;;15.20;14.30;;;8.00;93.60;;;;;;5014695;28;20194;-77
2020/12/13 06:24:07;;;;;;;14.98;14.27;;;8.10;93.30;;;;;;5014367;28;20652;-77
2020/12/13 06:26:34;;;;;;;15.48;14.45;;;8.10;93.10;;;;;;5013409;28;20750;-77
2020/12/13 06:29:02;;;;;;;15.30;14.50;;;8.20;92.80;;;;;;5013526;28;20202;-77
2020/12/13 06:31:29;;;;;;;272.38;41.78;;;8.10;93.20;;;;;;5013456;28;20461;-77
2020/12/13 06:33:55;;;;;;;13.73;13.02;;;8.10;93.20;;;;;;5013379;28;20225;-77
2020/12/13 06:36:23;;;;;;;15.10;14.23;;;8.00;93.50;;;;;;5012913;28;20221;-77
2020/12/13 06:38:53;;;;;;;15.27;14.57;;;8.10;93.10;;;;;;5014405;28;20190;-77
2020/12/13 06:41:23;;;;;;;14.80;14.00;;;8.10;93.00;;;;;;4994467;28;20225;-77
2020/12/13 06:44:02;;;;;;;15.10;14.30;;;8.10;92.80;;;;;;4994725;28;20225;-77
2020/12/13 06:46:30;;;;;;;15.02;14.23;;;8.10;92.70;;;;;;5010455;28;20691;-77
2020/12/13 06:48:57;;;;;;;15.80;14.80;;;8.10;92.60;;;;;;5013158;28;20202;-77
2020/12/13 06:51:29;;;;;;;14.88;13.98;;;8.10;93.30;;;;;;5012748;28;20210;-77
2020/12/13 06:53:57;;;;;;;15.23;14.43;;;8.10;93.40;;;;;;5013112;28;20248;-77
2020/12/13 06:56:24;;;;;;;15.57;14.77;;;8.10;92.80;;;;;;5012705;28;20222;-77
2020/12/13 06:58:55;;;;;;;14.40;13.70;;;8.20;92.40;;;;;;5013269;28;20599;-77
2020/12/13 07:01:24;;;;;;;15.38;14.57;;;8.20;92.10;;;;;;5012744;28;20193;-77
2020/12/13 07:03:51;;;;;;;15.48;14.57;;;8.10;92.40;;;;;;5013240;28;20198;-77
2020/12/13 07:06:23;;;;;;;15.13;14.13;;;8.20;92.20;;;;;;5012758;28;20222;-77
2020/12/13 07:08:53;;;;;;;15.23;14.43;;;8.10;92.00;;;;;;5012561;28;20232;-77
2020/12/13 07:11:23;;;;;;;15.15;14.38;;;8.10;92.40;;;;;;5012577;28;20611;-77
2020/12/13 07:13:50;;;;;;;15.55;14.75;;;8.10;93.00;;;;;;5012697;28;20238;-77
2020/12/13 07:16:31;;;;;;;16.95;15.95;;;8.10;92.30;;;;;;5012392;28;20726;-77
2020/12/13 07:19:06;;;;;;;16.00;15.20;;;8.20;91.80;;;;;;5012471;28;20206;-77
2020/12/13 07:21:33;;;;;;;15.50;14.80;;;8.10;91.70;;;;;;5012610;28;20198;-77
2020/12/13 07:24:00;;;;;;;14.93;14.13;;;8.10;91.80;;;;;;5012611;28;20208;-77
2020/12/13 07:26:32;;;;;;;14.85;14.05;;;8.10;91.80;;;;;;5012336;28;20245;-77
2020/12/13 07:29:00;;;;;;;14.95;14.25;;;8.20;91.60;;;;;;5012184;28;20197;-77
2020/12/13 07:31:35;;;;;;;15.00;14.20;;;8.10;91.70;;;;;;5012733;28;20233;-77
2020/12/13 07:34:02;;;;;;;36.60;17.42;;;8.20;91.70;;;;;;5012765;28;20658;-77
2020/12/13 07:36:29;;;;;;;15.77;14.70;;;8.20;92.20;;;;;;5012390;28;20221;-77
2020/12/13 07:38:55;;;;;;;15.40;14.60;;;8.20;92.40;;;;;;5012187;28;20194;-77
2020/12/13 07:41:23;;;;;;;17.05;16.15;;;8.20;92.40;;;;;;5011993;28;20652;-77
2020/12/13 07:43:55;;;;;;;15.05;14.25;;;8.20;92.50;;;;;;5012480;28;20271;-77
2020/12/13 07:46:21;;;;;;;15.95;15.18;;;8.20;92.20;;;;;;5012134;28;20225;-77
2020/12/13 07:48:58;;;;;;;15.18;14.38;;;8.30;92.00;;;;;;5012413;28;20198;-77
2020/12/13 07:51:25;;;;;;;15.90;14.90;;;8.30;91.90;;;;;;5012897;28;20217;-77
2020/12/13 07:53:51;;;;;;;49.58;18.92;;;8.30;92.10;;;;;;5015676;28;20197;-77
2020/12/13 07:56:24;;;;;;;15.77;14.85;;;8.20;92.60;;;;;;5015629;28;20222;-77
2020/12/13 07:58:51;;;;;;;16.30;14.90;;;8.30;93.10;;;;;;5015886;28;20204;-77
2020/12/13 08:01:18;;;;;;;14.20;13.60;;;8.40;92.80;;;;;;5015648;28;20198;-77
2020/12/13 08:03:46;;;;;;;14.65;13.95;;;8.30;93.40;;;;;;5015530;28;20196;-77
2020/12/13 08:06:14;;;;;;;14.18;13.48;;;8.40;93.40;;;;;;5015158;28;20634;-77
2020/12/13 08:08:45;;;;;;;14.82;13.98;;;8.50;92.80;;;;;;5015724;28;20731;-77
2020/12/13 08:11:12;;;;;;;12.88;12.20;;;8.40;93.00;;;;;;5015522;28;20264;-77
2020/12/13 08:13:46;;;;;;;15.77;15.07;;;8.40;93.20;;;;;;5015109;28;20194;-77
2020/12/13 08:16:13;;;;;;;15.10;14.30;;;8.40;93.30;;;;;;5015053;28;20584;-77
2020/12/13 08:18:44;;;;;;;15.10;14.40;;;8.40;93.30;;;;;;5015445;28;20252;-77
2020/12/13 08:21:12;;;;;;;14.25;13.48;;;8.40;93.00;;;;;;5015408;28;20674;-77
2020/12/13 08:23:40;;;;;;;1122.82;129.93;;;8.40;93.80;;;;;;5015153;28;20663;-77
2020/12/13 08:26:08;;;;;;;15.15;14.35;;;8.40;94.20;;;;;;5015183;28;20225;-77
2020/12/13 08:28:38;;;;;;;14.32;13.63;;;8.40;94.30;;;;;;5015471;28;20202;-77
2020/12/13 08:31:11;;;;;;;14.75;13.85;;;8.30;94.30;;;;;;5014823;28;20328;-77
2020/12/13 08:33:38;;;;;;;16.27;15.13;;;8.30;94.20;;;;;;5015006;28;20236;-77
2020/12/13 08:36:18;;;;;;;19.17;17.65;;;8.30;94.20;;;;;;5014834;28;20287;-77
2020/12/13 08:38:44;;;;;;;14.25;13.65;;;8.20;94.40;;;;;;5015163;28;20202;-77
2020/12/13 08:41:12;;;;;;;13.93;13.23;;;8.30;95.00;;;;;;5014728;28;20196;-77
2020/12/13 08:43:39;;;;;;;14.00;13.30;;;8.30;94.80;;;;;;5015161;28;20206;-77
2020/12/13 08:46:06;;;;;;;13.77;13.05;;;8.40;94.70;;;;;;5014893;28;20221;-77
2020/12/13 08:48:32;;;;;;;14.40;13.70;;;8.50;94.40;;;;;;5015032;28;20201;-77
2020/12/13 08:51:06;;;;;;;14.90;14.20;;;8.50;94.20;;;;;;5014601;28;20226;-77
2020/12/13 08:53:33;;;;;;;15.65;14.85;;;8.60;93.90;;;;;;5014530;28;20194;-77
2020/12/13 08:56:03;;;;;;;15.52;14.73;;;8.60;93.20;;;;;;5014641;28;20308;-77
2020/12/13 08:58:30;;;;;;;15.10;14.30;;;8.70;93.40;;;;;;5014817;28;20779;-77
2020/12/13 09:01:06;;;;;;;14.70;14.00;;;8.80;92.80;;;;;;5014565;28;20205;-77
2020/12/13 09:03:32;;;;;;;15.87;15.07;;;8.90;92.60;;;;;;5013917;28;20189;-77
2020/12/13 09:05:59;;;;;;;15.93;15.13;;;9.00;92.00;;;;;;5014235;28;20481;-77
2020/12/13 09:08:25;;;;;;;15.93;15.13;;;9.00;92.40;;;;;;5014560;28;20760;-77
2020/12/13 09:10:53;;;;;;;15.80;14.90;;;9.10;93.90;;;;;;5014258;28;20503;-77
2020/12/13 09:13:19;;;;;;;16.27;15.40;;;9.20;93.00;;;;;;5014438;28;20260;-77
2020/12/13 09:15:46;;;;;;;15.63;14.90;;;9.20;92.20;;;;;;5013837;28;20222;-77
2020/12/13 09:18:13;;;;;;;16.05;15.25;;;9.30;91.00;;;;;;5014514;28;20445;-77
2020/12/13 09:20:40;;;;;;;17.57;16.67;;;9.30;89.50;;;;;;5014252;28;20198;-77
2020/12/13 09:23:08;;;;;;;17.30;16.07;;;9.40;89.20;;;;;;5014323;28;20484;-77
2020/12/13 09:25:38;;;;;;;17.80;16.70;;;9.40;89.00;;;;;;5013761;28;20455;-77
2020/12/13 09:28:06;;;;;;;18.27;17.27;;;9.50;88.70;;;;;;5014202;28;20202;-77
2020/12/13 09:30:32;;;;;;;19.20;17.80;;;9.50;87.70;;;;;;5013776;28;20218;-77
2020/12/13 09:32:59;;;;;;;17.43;16.53;;;9.50;88.70;;;;;;5014052;28;20216;-77
2020/12/13 09:35:29;;;;;;;18.30;17.30;;;9.50;88.00;;;;;;5013607;28;20560;-77
2020/12/13 09:37:55;;;;;;;17.90;16.90;;;9.50;88.40;;;;;;5013978;28;20225;-77
2020/12/13 09:40:21;;;;;;;18.38;17.13;;;9.60;88.10;;;;;;5014084;28;20445;-77
2020/12/13 09:42:49;;;;;;;18.40;17.50;;;9.70;87.80;;;;;;5014137;28;20252;-77
2020/12/13 09:45:16;;;;;;;19.20;18.20;;;9.90;87.20;;;;;;5013516;28;20465;-77
2020/12/13 09:47:42;;;;;;;20.10;19.00;;;9.90;87.10;;;;;;5013591;28;20472;-77
2020/12/13 09:50:09;;;;;;;18.67;17.67;;;10.00;86.50;;;;;;5013737;28;21014;-77
2020/12/13 09:52:35;;;;;;;19.00;18.10;;;10.00;86.20;;;;;;5013772;28;20464;-77
2020/12/13 09:55:02;;;;;;;19.03;17.83;;;9.90;85.80;;;;;;5013413;28;20455;-77
2020/12/13 09:57:29;;;;;;;19.43;18.43;;;10.00;85.40;;;;;;5013450;28;20560;-77
2020/12/13 09:59:55;;;;;;;19.90;18.80;;;10.00;85.40;;;;;;5013659;28;20485;-77
2020/12/13 10:02:22;;;;;;;21.37;19.67;;;9.90;85.10;;;;;;5013236;28;20850;-77
2020/12/13 10:04:49;;;;;;;20.43;19.43;;;10.00;86.30;;;;;;5013702;28;20449;-77
2020/12/13 10:07:26;;;;;;;19.40;18.40;;;10.10;86.30;;;;;;5013096;28;20523;-77
2020/12/13 10:09:52;;;;;;;18.40;17.50;;;10.10;85.20;;;;;;5013129;28;20459;-77
2020/12/13 10:12:18;;;;;;;19.30;18.30;;;10.20;88.30;;;;;;5013420;28;20465;-77
2020/12/13 10:14:45;;;;;;;18.53;17.53;;;10.40;86.70;;;;;;5012560;28;20447;-77
2020/12/13 10:17:12;;;;;;;20.47;19.37;;;10.40;86.90;;;;;;5012794;28;21032;-77
2020/12/13 10:19:39;;;;;;;19.30;18.20;;;10.50;86.80;;;;;;5013304;28;20486;-77
2020/12/13 10:22:06;;;;;;;21.10;19.70;;;10.40;86.00;;;;;;5012796;28;20965;-77
2020/12/13 10:24:32;;;;;;;20.20;19.10;;;10.50;85.20;;;;;;5013309;28;20461;-77
2020/12/13 10:26:58;;;;;;;20.80;19.60;;;10.60;84.00;;;;;;5012852;28;21033;-77
2020/12/13 10:29:25;;;;;;;20.60;19.50;;;10.70;82.50;;;;;;5013057;28;20910;-77
2020/12/13 10:31:51;;;;;;;20.77;19.70;;;10.70;80.40;;;;;;5012874;28;20687;-77
2020/12/13 10:34:18;;;;;;;20.57;19.37;;;10.60;80.40;;;;;;5012703;28;20457;-77
2020/12/13 10:36:45;;;;;;;21.70;20.17;;;10.60;79.20;;;;;;5012557;28;20835;-77
2020/12/13 10:39:12;;;;;;;20.07;18.60;;;10.50;79.30;;;;;;5013442;28;20942;-76
2020/12/13 10:41:39;;;;;;;19.80;18.73;;;10.50;78.60;;;;;;5013134;28;20453;-77
2020/12/13 10:44:05;;;;;;;20.53;19.53;;;10.30;79.20;;;;;;5013327;28;20449;-77
2020/12/13 10:46:32;;;;;;;20.30;19.20;;;10.40;77.20;;;;;;5012692;28;20469;-77
2020/12/13 10:48:58;;;;;;;19.63;18.43;;;10.30;77.90;;;;;;5012800;28;20938;-77
2020/12/13 10:51:25;;;;;;;20.63;19.53;;;10.20;80.70;;;;;;5012436;28;20477;-77
2020/12/13 10:53:52;;;;;;;20.00;18.90;;;10.20;78.50;;;;;;5012667;28;20459;-77
2020/12/13 10:56:18;;;;;;;20.50;19.40;;;10.20;77.60;;;;;;5012313;28;20472;-77
2020/12/13 10:58:45;;;;;;;20.57;19.13;;;10.20;76.90;;;;;;5012876;28;20449;-77
2020/12/13 11:01:13;;;;;;;21.80;20.60;;;10.20;75.70;;;;;;5012576;28;20472;-77
2020/12/13 11:03:39;;;;;;;19.70;18.50;;;10.20;76.60;;;;;;5012799;28;20463;-77
2020/12/13 11:06:08;;;;;;;19.77;18.73;;;10.10;77.80;;;;;;5012270;28;20476;-77
2020/12/13 11:08:35;;;;;;;18.83;17.83;;;10.10;79.20;;;;;;5012605;28;20463;-77
2020/12/13 11:11:03;;;;;;;20.77;19.77;;;10.20;78.10;;;;;;5012339;28;20483;-77
2020/12/13 11:13:29;;;;;;;19.97;18.87;;;10.20;77.50;;;;;;5012657;28;20946;-77
2020/12/13 11:15:55;;;;;;;20.27;19.17;;;10.40;77.30;;;;;;5012115;28;20465;-77
2020/12/13 11:18:22;;;;;;;19.30;18.30;;;10.40;78.70;;;;;;5012390;28;20464;-77
2020/12/13 11:20:48;;;;;;;21.60;20.43;;;10.40;77.90;;;;;;5012412;28;20449;-77
2020/12/13 11:23:14;;;;;;;20.90;19.90;;;10.50;77.00;;;;;;5013008;28;20451;-77
2020/12/13 11:25:41;;;;;;;20.93;19.83;;;10.50;77.00;;;;;;5012403;28;20457;-77
2020/12/13 11:28:08;;;;;;;20.77;19.57;;;10.50;77.20;;;;;;5016139;28;20452;-77
2020/12/13 11:30:34;;;;;;;21.87;20.80;;;10.50;75.70;;;;;;5015960;28;20563;-77
2020/12/13 11:33:01;;;;;;;21.40;20.20;;;10.50;75.70;;;;;;5016112;28;20804;-77
2020/12/13 11:35:27;;;;;;;22.33;21.13;;;10.50;75.80;;;;;;5015862;28;20464;-77
2020/12/13 11:37:54;;;;;;;24.10;22.50;;;10.50;75.90;;;;;;5016297;28;20465;-77
2020/12/13 11:40:20;;;;;;;22.87;21.47;;;10.40;76.40;;;;;;5015946;28;20449;-77
2020/12/13 11:42:46;;;;;;;22.27;20.90;;;10.30;76.20;;;;;;5016193;28;20452;-77
2020/12/13 11:45:14;;;;;;;21.53;20.43;;;10.30;77.00;;;;;;5016001;28;20451;-77
2020/12/13 11:47:40;;;;;;;21.60;20.50;;;10.20;76.70;;;;;;5015914;28;20468;-77
2020/12/13 11:50:07;;;;;;;21.40;20.30;;;10.10;75.40;;;;;;5015671;28;20449;-77
2020/12/13 11:52:33;;;;;;;22.57;21.37;;;9.90;76.60;;;;;;5015733;28;20456;-77
2020/12/13 11:54:59;;;;;;;20.30;19.20;;;9.90;77.10;;;;;;5015800;28;20950;-77
2020/12/13 11:57:26;;;;;;;20.93;19.83;;;10.00;76.70;;;;;;5015670;28;20468;-77
2020/12/13 11:59:52;;;;;;;20.63;19.53;;;9.90;77.40;;;;;;5015578;28;20460;-77
2020/12/13 12:02:20;;;;;;;21.23;20.03;;;9.90;78.40;;;;;;5015304;28;20463;-77
2020/12/13 12:04:47;;;;;;;20.20;19.10;;;10.00;77.30;;;;;;5015723;28;20508;-77
2020/12/13 12:07:13;;;;;;;20.70;19.40;;;9.80;77.10;;;;;;5015122;28;20850;-77
2020/12/13 12:09:39;;;;;;;20.03;19.03;;;9.80;77.60;;;;;;5015167;28;20449;-77
2020/12/13 12:12:06;;;;;;;20.47;19.30;;;9.80;77.90;;;;;;5015247;28;20502;-77
2020/12/13 12:14:32;;;;;;;21.43;20.33;;;9.90;77.70;;;;;;5015488;28;20453;-77
2020/12/13 12:17:01;;;;;;;23.83;22.33;;;9.80;77.60;;;;;;5015310;28;20475;-77
2020/12/13 12:19:28;;;;;;;21.83;20.57;;;9.70;77.70;;;;;;5015247;28;20951;-77
2020/12/13 12:21:55;;;;;;;20.43;19.33;;;9.70;77.60;;;;;;5015684;28;20444;-77
2020/12/13 12:24:21;;;;;;;20.52;19.23;;;9.70;78.20;;;;;;5015350;28;20548;-77
2020/12/13 12:26:51;;;;;;;21.43;19.60;;;9.70;78.50;;;;;;5015101;28;20253;-77
2020/12/13 12:29:18;;;;;;;20.57;19.37;;;9.70;78.30;;;;;;5015046;28;20810;-77
2020/12/13 12:31:45;;;;;;;20.33;19.30;;;9.70;78.10;;;;;;5015039;28;20804;-77
2020/12/13 12:34:11;;;;;;;21.60;20.30;;;9.60;78.40;;;;;;5015186;28;20467;-77
2020/12/13 12:36:39;;;;;;;20.00;18.90;;;9.60;76.50;;;;;;5014526;28;20488;-77
2020/12/13 12:39:06;;;;;;;20.50;19.50;;;9.60;76.60;;;;;;5014154;28;20448;-77
2020/12/13 12:41:32;;;;;;;21.87;20.53;;;9.60;76.90;;;;;;5014670;28;20445;-77
2020/12/13 12:43:59;;;;;;;21.43;20.00;;;9.60;77.50;;;;;;5015009;28;20452;-77